Time,TemperatureF,DewpointF,PressureIn,WindDirection,WindDirectionDegrees,WindSpeedMPH,WindSpeedGustMPH,Humidity,HourlyPrecipIn,Conditions,Clouds,dailyrainin,SolarRadiationWatts/m^2,SoftwareType,DateUTC
2013-02-20 00:01:00,35.9,33.0,29.88,North,360,0.0,3.0,89,0.00,,,0.09,0,weatherlink.com 1.10,2013-02-19 23:01:00,
2013-02-20 00:16:00,35.8,33.0,29.88,SW,236,2.0,2.0,89,0.00,,,0.09,0,weatherlink.com 1.10,2013-02-19 23:16:00,
2013-02-20 00:31:00,35.9,33.0,29.87,North,360,0.0,3.0,89,0.00,,,0.09,0,weatherlink.com 1.10,2013-02-19 23:31:00,
2013-02-20 00:46:00,36.0,33.0,29.87,WSW,257,2.0,3.0,89,0.00,,,0.00,0,weatherlink.com 1.10,2013-02-19 23:46:00,
2013-02-20 01:01:00,36.2,33.0,29.87,North,360,0.0,3.0,89,0.00,,,0.00,0,weatherlink.com 1.10,2013-02-20 00:01:00,
2013-02-20 01:16:00,36.3,33.0,29.87,WSW,240,0.0,3.0,88,0.00,,,0.00,0,weatherlink.com 1.10,2013-02-20 00:16:00,
2013-02-20 01:31:00,36.3,33.0,29.87,WSW,242,0.0,2.0,88,0.00,,,0.00,0,weatherlink.com 1.10,2013-02-20 00:31:00,
2013-02-20 01:46:00,36.4,33.0,29.87,SW,217,2.0,3.0,87,0.00,,,0.00,0,weatherlink.com 1.10,2013-02-20 00:46:00,
2013-02-20 02:01:00,36.4,33.0,29.87,WSW,238,0.0,2.0,87,0.00,,,0.00,0,weatherlink.com 1.10,2013-02-20 01:01:00,
2013-02-20 02:16:00,36.3,33.0,29.87,SSW,199,0.0,2.0,87,0.00,,,0.00,0,weatherlink.com 1.10,2013-02-20 01:16:00,
2013-02-20 02:31:00,36.3,33.0,29.87,SSW,205,0.0,3.0,87,0.00,,,0.00,0,weatherlink.com 1.10,2013-02-20 01:31:00,
2013-02-20 02:46:00,36.2,32.0,29.87,WSW,255,0.0,2.0,86,0.00,,,0.00,0,weatherlink.com 1.10,2013-02-20 01:46:00,
2013-02-20 03:01:00,36.2,32.0,29.88,North,360,0.0,3.0,86,0.00,,,0.00,0,weatherlink.com 1.10,2013-02-20 02:01:00,
2013-02-20 03:16:00,36.1,32.0,29.87,SW,230,0.0,3.0,86,0.00,,,0.00,0,weatherlink.com 1.10,2013-02-20 02:16:00,
2013-02-20 03:31:00,35.9,32.0,29.88,SE,138,0.0,3.0,86,0.00,,,0.00,0,weatherlink.com 1.10,2013-02-20 02:31:00,
2013-02-20 03:46:00,35.9,32.0,29.88,WSW,244,0.0,3.0,86,0.00,,,0.00,0,weatherlink.com 1.10,2013-02-20 02:46:00,
2013-02-20 04:01:00,35.6,32.0,29.89,South,178,0.0,3.0,86,0.00,,,0.00,0,weatherlink.com 1.10,2013-02-20 03:01:00,
2013-02-20 04:16:00,35.2,31.0,29.89,WSW,237,0.0,5.0,86,0.00,,,0.00,0,weatherlink.com 1.10,2013-02-20 03:16:00,
2013-02-20 04:31:00,35.1,31.0,29.90,WSW,257,1.0,3.0,86,0.00,,,0.00,0,weatherlink.com 1.10,2013-02-20 03:31:00,
2013-02-20 04:46:00,34.9,31.0,29.90,North,10,1.0,5.0,86,0.00,,,0.00,0,weatherlink.com 1.10,2013-02-20 03:46:00,
2013-02-20 05:01:00,34.8,31.0,29.90,North,360,2.0,2.0,86,0.00,,,0.00,0,weatherlink.com 1.10,2013-02-20 04:01:00,
2013-02-20 05:16:00,34.7,31.0,29.90,SSW,213,2.0,3.0,86,0.00,,,0.00,0,weatherlink.com 1.10,2013-02-20 04:16:00,
2013-02-20 05:31:00,34.4,30.0,29.90,SW,229,0.0,4.0,85,0.00,,,0.00,0,weatherlink.com 1.10,2013-02-20 04:31:00,
2013-02-20 05:46:00,34.0,30.0,29.90,North,360,0.0,4.0,85,0.00,,,0.00,0,weatherlink.com 1.10,2013-02-20 04:46:00,
2013-02-20 06:01:00,33.5,29.0,29.91,NNW,333,0.0,4.0,84,0.00,,,0.00,0,weatherlink.com 1.10,2013-02-20 05:01:00,
2013-02-20 06:16:00,33.2,29.0,29.91,SW,231,0.0,4.0,84,0.00,,,0.00,0,weatherlink.com 1.10,2013-02-20 05:16:00,
2013-02-20 06:31:00,33.0,29.0,29.92,SW,221,1.0,3.0,85,0.00,,,0.00,0,weatherlink.com 1.10,2013-02-20 05:31:00,
2013-02-20 06:46:00,33.0,29.0,29.92,North,360,0.0,3.0,85,0.00,,,0.00,0,weatherlink.com 1.10,2013-02-20 05:46:00,
2013-02-20 07:01:00,33.1,29.0,29.93,SSW,200,0.0,3.0,86,0.00,,,0.00,18,weatherlink.com 1.10,2013-02-20 06:01:00,
2013-02-20 07:16:00,33.8,30.0,29.94,SW,234,0.0,3.0,85,0.00,,,0.00,26,weatherlink.com 1.10,2013-02-20 06:16:00,
2013-02-20 07:31:00,33.9,30.0,29.94,SW,214,1.0,4.0,84,0.00,,,0.00,30,weatherlink.com 1.10,2013-02-20 06:31:00,
2013-02-20 08:16:00,37.1,31.0,29.96,North,360,0.0,5.0,77,0.00,,,0.00,107,weatherlink.com 1.10,2013-02-20 07:16:00,
2013-02-20 08:32:00,36.3,30.0,29.96,West,269,0.0,3.0,78,0.00,,,0.00,93,weatherlink.com 1.10,2013-02-20 07:32:00,
2013-02-20 08:47:00,36.0,30.0,29.96,SSW,205,0.0,4.0,79,0.00,,,0.00,120,weatherlink.com 1.10,2013-02-20 07:47:00,
2013-02-20 09:17:00,36.6,30.0,29.97,WSW,239,0.0,4.0,76,0.00,,,0.00,127,weatherlink.com 1.10,2013-02-20 08:17:00,
2013-02-20 09:32:00,37.4,30.0,29.97,SSE,157,3.0,6.0,74,0.00,,,0.00,144,weatherlink.com 1.10,2013-02-20 08:32:00,
2013-02-20 09:47:00,37.5,30.0,29.97,SSW,211,2.0,5.0,74,0.00,,,0.00,176,weatherlink.com 1.10,2013-02-20 08:47:00,
2013-02-20 10:17:00,39.0,30.0,29.98,NW,323,3.0,5.0,70,0.00,,,0.00,209,weatherlink.com 1.10,2013-02-20 09:17:00,
2013-02-20 11:02:00,43.5,32.0,29.99,West,259,2.0,6.0,63,0.00,,,0.00,670,weatherlink.com 1.10,2013-02-20 10:02:00,
2013-02-20 11:17:00,41.5,30.0,29.99,WSW,256,2.0,4.0,63,0.00,,,0.00,90,weatherlink.com 1.10,2013-02-20 10:17:00,
2013-02-20 11:32:00,40.5,29.0,29.99,NNE,15,1.0,6.0,65,0.00,,,0.00,197,weatherlink.com 1.10,2013-02-20 10:32:00,
2013-02-20 11:47:00,43.3,30.0,29.98,South,176,1.0,9.0,60,0.00,,,0.00,596,weatherlink.com 1.10,2013-02-20 10:47:00,
2013-02-20 12:02:00,45.7,29.0,29.98,North,360,3.0,7.0,53,0.00,,,0.00,596,weatherlink.com 1.10,2013-02-20 11:02:00,
2013-02-20 12:17:00,45.7,31.0,29.98,East,92,1.0,8.0,57,0.00,,,0.00,652,weatherlink.com 1.10,2013-02-20 11:17:00,
2013-02-20 12:32:00,42.8,29.0,29.98,NNW,332,0.0,5.0,59,0.00,,,0.00,153,weatherlink.com 1.10,2013-02-20 11:32:00,
2013-02-20 12:47:00,42.1,29.0,29.99,WSW,246,0.0,4.0,60,0.00,,,0.00,262,weatherlink.com 1.10,2013-02-20 11:47:00,
2013-02-20 13:02:00,45.4,30.0,29.98,NNW,336,2.0,8.0,55,0.00,,,0.00,552,weatherlink.com 1.10,2013-02-20 12:02:00,
2013-02-20 13:17:00,44.7,29.0,29.98,North,5,4.0,8.0,54,0.00,,,0.00,545,weatherlink.com 1.10,2013-02-20 12:17:00,
2013-02-20 13:32:00,44.1,29.0,29.98,North,10,0.0,6.0,56,0.00,,,0.00,482,weatherlink.com 1.10,2013-02-20 12:32:00,
2013-02-20 14:02:00,41.2,31.0,29.99,NNW,341,2.0,9.0,68,0.00,,,0.00,253,weatherlink.com 1.10,2013-02-20 13:02:00,
2013-02-20 14:17:00,39.3,31.0,29.99,North,360,1.0,4.0,71,0.00,,,0.00,163,weatherlink.com 1.10,2013-02-20 13:17:00,
2013-02-20 14:32:00,39.6,31.0,30.00,North,360,1.0,7.0,70,0.00,,,0.00,37,weatherlink.com 1.10,2013-02-20 13:32:00,
2013-02-20 14:47:00,37.2,32.0,29.99,West,261,0.0,3.0,80,0.00,,,0.00,63,weatherlink.com 1.10,2013-02-20 13:47:00,
2013-02-20 15:02:00,36.7,31.0,30.00,North,360,0.0,4.0,79,0.00,,,0.00,104,weatherlink.com 1.10,2013-02-20 14:02:00,
2013-02-20 15:17:00,38.3,31.0,30.00,North,5,0.0,5.0,76,0.01,,,0.01,339,weatherlink.com 1.10,2013-02-20 14:17:00,
2013-02-20 15:32:00,39.5,30.0,30.00,West,263,0.0,8.0,69,0.01,,,0.01,95,weatherlink.com 1.10,2013-02-20 14:32:00,
2013-02-20 15:47:00,38.4,29.0,30.00,WSW,238,0.0,3.0,69,0.01,,,0.01,44,weatherlink.com 1.10,2013-02-20 14:47:00,
2013-02-20 16:02:00,37.8,30.0,30.00,WSW,240,0.0,3.0,72,0.01,,,0.01,26,weatherlink.com 1.10,2013-02-20 15:02:00,
2013-02-20 16:17:00,37.0,29.0,30.00,West,261,0.0,1.0,72,0.00,,,0.01,18,weatherlink.com 1.10,2013-02-20 15:17:00,
2013-02-20 16:32:00,36.4,29.0,30.01,North,360,2.0,2.0,74,0.00,,,0.01,30,weatherlink.com 1.10,2013-02-20 15:32:00,
2013-02-20 16:47:00,36.3,29.0,30.01,NNW,333,0.0,2.0,75,0.00,,,0.01,21,weatherlink.com 1.10,2013-02-20 15:47:00,
2013-02-20 17:02:00,35.8,28.0,30.01,WNW,287,0.0,3.0,74,0.00,,,0.01,7,weatherlink.com 1.10,2013-02-20 16:02:00,
2013-02-20 17:17:00,35.3,28.0,30.02,WNW,288,0.0,1.0,74,0.00,,,0.01,0,weatherlink.com 1.10,2013-02-20 16:17:00,
2013-02-20 17:32:00,34.7,27.0,30.02,North,360,2.0,4.0,74,0.00,,,0.01,0,weatherlink.com 1.10,2013-02-20 16:32:00,
2013-02-20 17:47:00,34.2,27.0,30.02,West,281,0.0,2.0,76,0.00,,,0.01,0,weatherlink.com 1.10,2013-02-20 16:47:00,
2013-02-20 18:02:00,34.0,28.0,30.03,North,360,0.0,2.0,77,0.00,,,0.01,0,weatherlink.com 1.10,2013-02-20 17:02:00,
2013-02-20 18:17:00,33.7,27.0,30.03,West,277,0.0,1.0,77,0.00,,,0.01,0,weatherlink.com 1.10,2013-02-20 17:17:00,
2013-02-20 18:48:00,33.3,27.0,30.04,WSW,240,1.0,3.0,78,0.00,,,0.01,0,weatherlink.com 1.10,2013-02-20 17:48:00,
2013-02-20 19:03:00,33.2,27.0,30.04,West,278,0.0,3.0,77,0.00,,,0.01,0,weatherlink.com 1.10,2013-02-20 18:03:00,
2013-02-20 19:18:00,33.2,27.0,30.04,West,261,2.0,3.0,78,0.00,,,0.01,0,weatherlink.com 1.10,2013-02-20 18:18:00,
2013-02-20 19:48:00,33.1,27.0,30.04,NW,308,1.0,3.0,77,0.00,,,0.01,0,weatherlink.com 1.10,2013-02-20 18:48:00,
2013-02-20 20:48:00,32.2,25.0,30.06,North,360,0.0,3.0,75,0.00,,,0.01,0,weatherlink.com 1.10,2013-02-20 19:48:00,
2013-02-20 21:18:00,32.0,26.0,30.06,SSW,205,1.0,4.0,78,0.00,,,0.01,0,weatherlink.com 1.10,2013-02-20 20:18:00,
2013-02-20 21:33:00,31.9,26.0,30.07,SSW,197,2.0,4.0,78,0.00,,,0.01,0,weatherlink.com 1.10,2013-02-20 20:33:00,
2013-02-20 22:03:00,31.7,26.0,30.07,NE,38,0.0,4.0,78,0.00,,,0.01,0,weatherlink.com 1.10,2013-02-20 21:03:00,
2013-02-20 22:18:00,31.5,25.0,30.07,NNE,15,0.0,3.0,78,0.00,,,0.01,0,weatherlink.com 1.10,2013-02-20 21:18:00,
2013-02-20 22:33:00,31.0,25.0,30.08,NNE,14,0.0,2.0,79,0.00,,,0.01,0,weatherlink.com 1.10,2013-02-20 21:33:00,
2013-02-20 22:48:00,30.4,25.0,30.07,NNE,15,0.0,1.0,80,0.00,,,0.01,0,weatherlink.com 1.10,2013-02-20 21:48:00,
2013-02-20 23:03:00,29.8,25.0,30.08,NNE,15,0.0,0.0,81,0.00,,,0.01,0,weatherlink.com 1.10,2013-02-20 22:03:00,
2013-02-20 23:18:00,29.3,24.0,30.08,NNE,15,0.0,0.0,82,0.00,,,0.01,0,weatherlink.com 1.10,2013-02-20 22:18:00,
2013-02-20 23:33:00,28.8,24.0,30.08,NNE,14,0.0,0.0,82,0.00,,,0.01,0,weatherlink.com 1.10,2013-02-20 22:33:00,
2013-02-20 23:48:00,28.2,24.0,30.08,NNE,15,0.0,0.0,83,0.00,,,0.01,0,weatherlink.com 1.10,2013-02-20 22:48:00,